Aérodrome :
LOGIN :

S'inscrire | Disclaimer

   EN    FR    IT 

 










Légende :    VFR   VFR Marginal   IFR   IFR Intensif   IFR Très Intensif
Visi : 
Plafond : 
>= 8 km
>= 3000ft
5 à 8 km
1000 à 3000 ft
1500m à 5 km
500 à 1000 ft
800 à 1500m
200 à 500 ft
< 800m
< 200 ft
Symboles :   Orages  Brouillard  Fortes neiges  Fortes précipitations  Vent > 20 kt
SIGMETs :   Divers  Orages  Givrage  Turbulence  Onde Orograph.  Cendres Volcan.






- Altitude de l'aérodrome : 277 ft
- Code IATA : JER


EGJJ - Jersey

DERNIER METAR :
  • 171450Z 24023KT 9999 -SHRA FEW016CB BKN030 BKN032 08/04 Q1019

METARs EXPIRÉS :
  • 171420Z 27017G27KT 9999 VCSH FEW016CB SCT036 08/05 Q1018
  • 171350Z 25018KT 9999 VCSH FEW016CB SCT030 08/05 Q1018
  • 171320Z 26018KT 9999 VCSH FEW016CB BKN031 08/04 Q1018
  • 171250Z 27016KT 9999 VCSH FEW016CB SCT031 09/05 Q1018
  • 171220Z 27020KT 9999 VCSH FEW016CB SCT030 09/05 Q1018

TAF TAF EGJJ
Valide du 17 à 15h jusqu'au 18 à 00h UTC


171358Z 1715/1800 27020KT 9999 FEW018CB SCT022
TEMPO 1715/1800 6000 SHRA BKN015CB
PROB30
TEMPO 1715/1800 25026G45KT 3000 +SHRAGS BKN012CB
ATIS : +44 1534 498 073



MET'MAP, la Météo Aéronautique d'un coup d'oeil ! - Copyright ORBIFLY Décembre 2007 - Disclaimer

ORBIFLY MET'MAP TEAM :

Programmation & Développement : Alexandra Zaïnal
Sur une idée originale de : Baudouin d'Aumeries
Assistance à la programmation : Marc-Olivier Méhu
Soutien technique & logistique : Manuel Goepfert

Contact : metmap@orbifly.com




SOURCES & CREDITS :

   NOAA